M I D A S
Marine Information and Data Acquisition System
Tripno 1608 of the Zeeleeuw from 2008-11-07 07:51:46 to 2008-11-07 12:14:58
Back to CruiseResearch ActivitiesStationsMapUnderway DataData graphs

EquipmentUnitsComment
TimeDGPSUTC
LatitudeDGPSDM.mWGS84
LongitudeDGPSDM.mWGS84
HeadingGyrodeg 
SOGDGPSknotsSpeed over ground
COGDGPSdegCourse over ground
DepthEcho soundermeters200 kHz
Missing or incorrect values are displayed as -999
Navigation data collected by the RV Zeeleeuw from 2008-11-07 07:19:33 to 2008-11-07 12:28:13
                                                                                    Next 1000 lines
Time Latitude Longitude Heading SOG COG Depth
2008-11-07 07:19:43 51°13.624 2°56.053 124.2 0.1 32 9.6
2008-11-07 07:19:48 51°13.624 2°56.053 124.2 0.1 39 9.6
2008-11-07 07:19:53 51°13.623 2°56.052 124.2 0.1 44 9.5
2008-11-07 07:19:58 51°13.623 2°56.051 124.2 -999 249 9.5
2008-11-07 07:20:03 51°13.622 2°56.049 124.2 -999 34 9.5
2008-11-07 07:20:08 51°13.622 2°56.049 124.2 -999 50 9.6
2008-11-07 07:20:13 51°13.622 2°56.049 124.2 -999 57 9.5
2008-11-07 07:20:18 51°13.622 2°56.048 124.2 -999 255 9.5
2008-11-07 07:20:23 51°13.622 2°56.048 124.2 -999 296 9.5
2008-11-07 07:20:27 51°13.622 2°56.049 124.2 -999 339 9.5
2008-11-07 07:20:33 51°13.622 2°56.049 124.2 -999 89 9.5
2008-11-07 07:20:38 51°13.623 2°56.049 124.2 -999 55 9.5
2008-11-07 07:20:43 51°13.623 2°56.049 124.2 -999 60 9.5
2008-11-07 07:20:47 51°13.623 2°56.049 124.3 -999 69 9.5
2008-11-07 07:20:53 51°13.623 2°56.049 124.3 -999 85 9.5
2008-11-07 07:20:58 51°13.623 2°56.049 124.3 -999 299 9.6
2008-11-07 07:21:03 51°13.623 2°56.049 124.3 -999 339 9.5
2008-11-07 07:21:08 51°13.623 2°56.049 124.3 -999 57 9.6
2008-11-07 07:21:13 51°13.623 2°56.048 124.3 -999 50 9.5
2008-11-07 07:21:18 51°13.623 2°56.048 124.3 -999 22 9.5
2008-11-07 07:21:23 51°13.623 2°56.048 124.3 0.1 229 9.6
2008-11-07 07:21:27 51°13.623 2°56.048 124.3 -999 36 9.5
2008-11-07 07:21:33 51°13.623 2°56.049 124.2 0.1 51 9.5
2008-11-07 07:21:38 51°13.623 2°56.048 124.2 0.1 24 9.5
2008-11-07 07:21:43 51°13.623 2°56.048 124.2 -999 48 9.5
2008-11-07 07:21:48 51°13.623 2°56.048 124.2 -999 71 9.5
2008-11-07 07:21:53 51°13.623 2°56.048 124.2 -999 62 9.5
2008-11-07 07:21:58 51°13.623 2°56.048 124.2 -999 63 9.5
2008-11-07 07:22:03 51°13.623 2°56.048 124.2 -999 59 9.5
2008-11-07 07:22:08 51°13.623 2°56.049 124.2 -999 56 9.5
2008-11-07 07:22:13 51°13.623 2°56.049 124.2 -999 52 9.5
2008-11-07 07:22:18 51°13.624 2°56.049 124.2 -999 52 9.5
2008-11-07 07:22:23 51°13.624 2°56.048 124.2 -999 53 9.5
2008-11-07 07:22:27 51°13.624 2°56.048 124.2 -999 50 9.5
2008-11-07 07:22:33 51°13.624 2°56.049 124.2 -999 68 9.5
2008-11-07 07:22:38 51°13.624 2°56.049 124.2 -999 86 9.5
2008-11-07 07:22:43 51°13.624 2°56.048 124.2 -999 117 9.5
2008-11-07 07:22:47 51°13.624 2°56.048 124.2 -999 154 9.5
2008-11-07 07:22:53 51°13.624 2°56.048 124.2 -999 349 9.5
2008-11-07 07:22:58 51°13.624 2°56.048 124.2 -999 341 9.5
2008-11-07 07:23:03 51°13.624 2°56.048 124.2 -999 357 9.5
2008-11-07 07:23:07 51°13.624 2°56.048 124.2 -999 92 9.5
2008-11-07 07:23:13 51°13.624 2°56.048 124.2 -999 301 9.5
2008-11-07 07:23:18 51°13.624 2°56.048 124.2 -999 340 9.5
2008-11-07 07:23:23 51°13.624 2°56.048 124.2 -999 125 9.5
2008-11-07 07:23:28 51°13.624 2°56.048 124.2 -999 16 9.5
2008-11-07 07:23:33 51°13.624 2°56.048 124.2 -999 309 9.5
2008-11-07 07:23:38 51°13.624 2°56.048 124.2 -999 358 9.5
2008-11-07 07:23:43 51°13.624 2°56.048 124.2 -999 173 9.5
2008-11-07 07:23:48 51°13.625 2°56.048 124.2 -999 343 9.5
2008-11-07 07:23:53 51°13.624 2°56.048 124.2 -999 356 9.6
2008-11-07 07:23:58 51°13.624 2°56.048 124.2 -999 58 9.6
2008-11-07 07:24:03 51°13.624 2°56.048 124.2 -999 332 9.5
2008-11-07 07:24:08 51°13.624 2°56.048 124.2 -999 326 9.5
2008-11-07 07:24:13 51°13.624 2°56.048 124.2 -999 349 9.6
2008-11-07 07:24:18 51°13.624 2°56.048 124.2 -999 23 9.5
2008-11-07 07:24:23 51°13.624 2°56.049 124.2 -999 82 9.5
2008-11-07 07:24:27 51°13.624 2°56.048 124.1 -999 157 9.5
2008-11-07 07:24:33 51°13.624 2°56.049 124.1 -999 359 9.5
2008-11-07 07:24:38 51°13.624 2°56.049 124.1 -999 325 9.5
2008-11-07 07:24:43 51°13.624 2°56.049 124.1 -999 118 9.5
2008-11-07 07:24:48 51°13.625 2°56.049 124.1 -999 34 9.5
2008-11-07 07:24:53 51°13.624 2°56.049 124.1 -999 352 9.5
2008-11-07 07:24:58 51°13.624 2°56.049 124.1 -999 2 9.5
2008-11-07 07:25:03 51°13.624 2°56.049 124.1 -999 2 9.5
2008-11-07 07:25:07 51°13.624 2°56.049 124.1 -999 51 9.5
2008-11-07 07:25:12 51°13.624 2°56.048 124.2 -999 300 9.5
2008-11-07 07:25:18 51°13.624 2°56.048 124.2 -999 353 9.5
2008-11-07 07:25:23 51°13.624 2°56.048 124.2 -999 12 9.5
2008-11-07 07:25:27 51°13.624 2°56.048 124.2 -999 288 9.5
2008-11-07 07:25:33 51°13.624 2°56.048 124.2 -999 308 9.5
2008-11-07 07:25:38 51°13.625 2°56.048 124.2 -999 325 9.5
2008-11-07 07:25:43 51°13.625 2°56.048 124.2 -999 326 9.5
2008-11-07 07:25:48 51°13.625 2°56.048 124.2 0.1 323 9.5
2008-11-07 07:25:53 51°13.625 2°56.048 124.2 -999 350 9.5
2008-11-07 07:25:58 51°13.625 2°56.048 124 -999 340 9.5
2008-11-07 07:26:03 51°13.625 2°56.048 124 -999 326 9.5
2008-11-07 07:26:07 51°13.625 2°56.048 123.9 -999 352 9.5
2008-11-07 07:26:13 51°13.625 2°56.048 123.9 -999 156 9.5
2008-11-07 07:26:18 51°13.625 2°56.048 123.9 -999 141 9.5
2008-11-07 07:26:23 51°13.625 2°56.048 123.9 -999 183 9.5
2008-11-07 07:26:28 51°13.625 2°56.048 124 -999 249 9.5
2008-11-07 07:26:33 51°13.625 2°56.048 124 -999 85 9.5
2008-11-07 07:26:38 51°13.625 2°56.048 124.1 -999 357 9.5
2008-11-07 07:26:43 51°13.625 2°56.048 124.1 -999 20 9.5
2008-11-07 07:26:48 51°13.625 2°56.048 124.1 -999 52 9.5
2008-11-07 07:26:53 51°13.625 2°56.047 124.1 -999 13 9.5
2008-11-07 07:26:58 51°13.625 2°56.047 124.1 -999 57 9.5
2008-11-07 07:27:03 51°13.625 2°56.047 124.1 -999 128 9.5
2008-11-07 07:27:07 51°13.625 2°56.047 124.1 -999 50 9.5
2008-11-07 07:27:13 51°13.625 2°56.047 124.1 -999 336 9.5
2008-11-07 07:27:18 51°13.625 2°56.047 124.1 -999 334 9.5
2008-11-07 07:27:23 51°13.625 2°56.048 124.1 -999 4 9.5
2008-11-07 07:27:27 51°13.625 2°56.048 124.1 -999 36 9.5
2008-11-07 07:27:33 51°13.624 2°56.047 124.1 -999 62 9.5
2008-11-07 07:27:38 51°13.624 2°56.047 124.1 -999 128 9.5
2008-11-07 07:27:43 51°13.625 2°56.048 124.1 -999 42 9.5
2008-11-07 07:27:48 51°13.625 2°56.049 124.1 -999 103 9.5
2008-11-07 07:27:53 51°13.625 2°56.049 124.1 -999 317 9.5
2008-11-07 07:27:58 51°13.625 2°56.05 124.1 -999 328 9.5
2008-11-07 07:28:03 51°13.626 2°56.05 124.1 -999 329 9.5
2008-11-07 07:28:07 51°13.626 2°56.051 124.1 -999 4 9.5
2008-11-07 07:28:13 51°13.626 2°56.05 124.1 -999 41 9.5
2008-11-07 07:28:18 51°13.625 2°56.049 124.1 -999 64 9.5
2008-11-07 07:28:23 51°13.625 2°56.049 124.2 -999 11 9.5
2008-11-07 07:28:28 51°13.624 2°56.048 124.2 -999 304 9.5
2008-11-07 07:28:33 51°13.624 2°56.048 124.2 -999 340 9.5
2008-11-07 07:28:38 51°13.624 2°56.048 124.2 -999 47 9.5
2008-11-07 07:28:43 51°13.624 2°56.048 124.2 -999 18 9.5
2008-11-07 07:28:48 51°13.624 2°56.049 124.2 -999 324 9.5
2008-11-07 07:28:53 51°13.625 2°56.049 124.2 -999 326 9.5
2008-11-07 07:28:58 51°13.625 2°56.049 124.2 -999 348 9.5
2008-11-07 07:29:03 51°13.625 2°56.049 124.2 -999 309 9.5
2008-11-07 07:29:08 51°13.625 2°56.05 124.2 -999 49 9.5
2008-11-07 07:29:13 51°13.625 2°56.049 124.2 -999 69 9.5
2008-11-07 07:29:18 51°13.625 2°56.049 124.2 -999 357 9.5
2008-11-07 07:29:23 51°13.625 2°56.049 124.1 -999 4 9.5
2008-11-07 07:29:27 51°13.625 2°56.049 124 -999 248 9.5
2008-11-07 07:29:33 51°13.625 2°56.049 124 -999 246 9.5
2008-11-07 07:29:38 51°13.625 2°56.049 124 -999 225 9.5
2008-11-07 07:29:43 51°13.625 2°56.049 124 -999 28 9.5
2008-11-07 07:29:47 51°13.625 2°56.049 124.1 -999 11 9.5
2008-11-07 07:29:53 51°13.625 2°56.049 124.1 -999 281 9.5
2008-11-07 07:29:58 51°13.625 2°56.049 124.1 -999 323 9.5
2008-11-07 07:30:03 51°13.625 2°56.049 124.1 -999 324 9.5
2008-11-07 07:30:07 51°13.625 2°56.048 124.1 -999 326 9.5
2008-11-07 07:30:13 51°13.625 2°56.048 124.1 -999 341 9.5
2008-11-07 07:30:18 51°13.625 2°56.048 124.1 -999 348 9.5
2008-11-07 07:30:23 51°13.625 2°56.048 124.1 -999 1 9.5
2008-11-07 07:30:27 51°13.625 2°56.048 124.1 -999 40 9.5
2008-11-07 07:30:33 51°13.625 2°56.048 124.1 -999 48 9.5
2008-11-07 07:30:38 51°13.625 2°56.048 124.1 -999 70 9.5
2008-11-07 07:30:43 51°13.625 2°56.048 124.1 -999 15 9.5
2008-11-07 07:30:48 51°13.625 2°56.048 124.1 -999 8 9.5
2008-11-07 07:30:53 51°13.625 2°56.048 124.1 -999 333 9.5
2008-11-07 07:30:58 51°13.625 2°56.048 124.1 -999 284 9.5
2008-11-07 07:31:03 51°13.625 2°56.048 124.1 -999 339 9.5
2008-11-07 07:31:08 51°13.625 2°56.048 124.1 -999 356 9.5
2008-11-07 07:31:13 51°13.625 2°56.048 124.1 -999 329 9.5
2008-11-07 07:31:18 51°13.625 2°56.048 124.1 -999 320 9.5
2008-11-07 07:31:23 51°13.625 2°56.048 124.1 -999 316 9.5
2008-11-07 07:31:28 51°13.625 2°56.048 124.1 -999 342 9.5
2008-11-07 07:31:33 51°13.624 2°56.048 124.1 -999 306 9.5
2008-11-07 07:31:38 51°13.624 2°56.048 124.1 -999 357 9.5
2008-11-07 07:31:43 51°13.624 2°56.048 124.1 -999 19 9.5
2008-11-07 07:31:47 51°13.624 2°56.048 124.1 -999 359 9.5
2008-11-07 07:31:53 51°13.624 2°56.048 124.1 -999 2 9.5
2008-11-07 07:31:58 51°13.624 2°56.048 124.1 -999 321 9.5
2008-11-07 07:32:03 51°13.624 2°56.048 124.1 -999 332 9.5
2008-11-07 07:32:07 51°13.624 2°56.049 124.1 -999 339 9.5
2008-11-07 07:32:13 51°13.624 2°56.049 124.1 -999 10 9.5
2008-11-07 07:32:18 51°13.624 2°56.049 124.1 -999 17 9.5
2008-11-07 07:32:23 51°13.624 2°56.049 124.1 -999 14 9.5
2008-11-07 07:32:27 51°13.624 2°56.049 124.1 -999 314 9.5
2008-11-07 07:32:33 51°13.624 2°56.049 124 -999 344 9.5
2008-11-07 07:32:38 51°13.624 2°56.049 124 -999 325 9.5
2008-11-07 07:32:43 51°13.624 2°56.049 124 -999 325 9.5
2008-11-07 07:32:48 51°13.624 2°56.049 124 -999 358 9.5
2008-11-07 07:32:53 51°13.624 2°56.049 124.1 -999 311 9.5
2008-11-07 07:32:58 51°13.625 2°56.049 124.1 -999 21 9.5
2008-11-07 07:33:03 51°13.625 2°56.049 124.1 -999 326 9.5
2008-11-07 07:33:08 51°13.625 2°56.049 124.1 -999 330 9.5
2008-11-07 07:33:13 51°13.625 2°56.049 124.1 -999 351 9.5
2008-11-07 07:33:18 51°13.625 2°56.049 124.1 -999 10 9.5
2008-11-07 07:33:23 51°13.624 2°56.049 124.1 -999 355 9.5
2008-11-07 07:33:28 51°13.624 2°56.049 124.1 -999 344 9.5
2008-11-07 07:33:33 51°13.624 2°56.049 124.1 -999 332 9.4
2008-11-07 07:33:38 51°13.624 2°56.048 124.1 -999 288 9.5
2008-11-07 07:33:43 51°13.624 2°56.049 124.1 -999 13 9.5
2008-11-07 07:33:48 51°13.624 2°56.048 124.1 -999 346 9.5
2008-11-07 07:33:53 51°13.624 2°56.048 124.1 -999 352 9.5
2008-11-07 07:33:58 51°13.624 2°56.048 124.1 -999 288 9.5
2008-11-07 07:34:03 51°13.624 2°56.048 124.1 -999 354 9.5
2008-11-07 07:34:07 51°13.624 2°56.048 124.1 -999 328 9.5
2008-11-07 07:34:13 51°13.624 2°56.049 124.1 -999 355 9.5
2008-11-07 07:34:18 51°13.624 2°56.049 124.1 -999 310 9.5
2008-11-07 07:34:23 51°13.624 2°56.049 124.1 -999 309 9.5
2008-11-07 07:34:27 51°13.624 2°56.049 124.1 -999 337 9.5
2008-11-07 07:34:33 51°13.624 2°56.049 124.1 -999 344 9.5
2008-11-07 07:34:38 51°13.624 2°56.049 124.1 -999 284 9.5
2008-11-07 07:34:43 51°13.624 2°56.049 124.1 -999 238 9.5
2008-11-07 07:34:47 51°13.624 2°56.049 124.1 -999 18 9.5
2008-11-07 07:34:53 51°13.624 2°56.049 124.1 -999 269 9.5
2008-11-07 07:34:58 51°13.624 2°56.049 124.1 -999 349 9.5
2008-11-07 07:35:03 51°13.624 2°56.049 124.1 -999 43 9.5
2008-11-07 07:35:08 51°13.624 2°56.049 124.1 -999 35 9.5
2008-11-07 07:35:13 51°13.624 2°56.049 124.1 -999 342 9.5
2008-11-07 07:35:18 51°13.624 2°56.049 124.1 -999 7 9.5
2008-11-07 07:35:23 51°13.623 2°56.049 124.1 -999 2 9.5
2008-11-07 07:35:28 51°13.624 2°56.049 124.1 -999 20 9.5
2008-11-07 07:35:33 51°13.623 2°56.05 124.2 -999 156 9.5
2008-11-07 07:35:38 51°13.623 2°56.05 124.2 -999 303 9.5
2008-11-07 07:35:43 51°13.623 2°56.05 124.2 -999 13 9.4
2008-11-07 07:35:48 51°13.623 2°56.05 124.2 -999 25 9.5
2008-11-07 07:35:53 51°13.623 2°56.05 124.2 -999 9 9.5
2008-11-07 07:35:58 51°13.623 2°56.05 124.2 -999 263 9.5
2008-11-07 07:36:03 51°13.623 2°56.05 124.2 -999 71 9.5
2008-11-07 07:36:08 51°13.623 2°56.05 124.2 -999 233 9.5
2008-11-07 07:36:13 51°13.623 2°56.05 124.2 -999 325 9.4
2008-11-07 07:36:18 51°13.623 2°56.05 124.1 -999 317 9.5
2008-11-07 07:36:23 51°13.623 2°56.05 124.1 -999 101 9.5
2008-11-07 07:36:27 51°13.623 2°56.05 124.1 -999 27 9.5
2008-11-07 07:36:33 51°13.623 2°56.05 124.1 -999 318 9.5
2008-11-07 07:36:38 51°13.623 2°56.05 124.1 -999 329 9.4
2008-11-07 07:36:43 51°13.623 2°56.05 124.1 -999 246 9.5
2008-11-07 07:36:47 51°13.623 2°56.05 124.1 -999 214 9.5
2008-11-07 07:36:53 51°13.623 2°56.05 124.1 -999 59 9.5
2008-11-07 07:36:58 51°13.623 2°56.05 124.1 -999 92 9.5
2008-11-07 07:37:03 51°13.623 2°56.05 124.1 -999 283 9.5
2008-11-07 07:37:07 51°13.623 2°56.05 124.1 -999 4 9.5
2008-11-07 07:37:13 51°13.623 2°56.05 124.1 -999 38 9.5
2008-11-07 07:37:18 51°13.623 2°56.05 124.1 -999 325 9.5
2008-11-07 07:37:23 51°13.623 2°56.05 124.1 -999 7 9.5
2008-11-07 07:37:28 51°13.623 2°56.05 124.1 -999 27 9.5
2008-11-07 07:37:33 51°13.623 2°56.05 124.1 -999 343 9.5
2008-11-07 07:37:38 51°13.623 2°56.05 124.1 -999 290 9.4
2008-11-07 07:37:43 51°13.623 2°56.05 124.1 -999 314 9.5
2008-11-07 07:37:48 51°13.623 2°56.05 124.1 -999 22 9.5
2008-11-07 07:37:53 51°13.623 2°56.05 124.1 -999 36 9.4
2008-11-07 07:37:58 51°13.623 2°56.05 124.1 -999 48 9.4
2008-11-07 07:38:03 51°13.623 2°56.05 124.1 -999 289 9.4
2008-11-07 07:38:08 51°13.623 2°56.05 124.1 -999 355 9.4
2008-11-07 07:38:13 51°13.623 2°56.05 124.1 -999 32 9.5
2008-11-07 07:38:18 51°13.623 2°56.05 124.1 -999 358 9.4
2008-11-07 07:38:23 51°13.623 2°56.049 124.1 -999 253 9.4
2008-11-07 07:38:28 51°13.623 2°56.049 124.1 -999 247 9.4
2008-11-07 07:38:33 51°13.623 2°56.049 124 -999 357 9.4
2008-11-07 07:38:38 51°13.623 2°56.049 124 -999 7 9.4
2008-11-07 07:38:43 51°13.623 2°56.049 124 -999 120 9.4
2008-11-07 07:38:47 51°13.623 2°56.049 124 -999 74 9.5
2008-11-07 07:38:53 51°13.623 2°56.049 124 -999 326 9.4
2008-11-07 07:38:58 51°13.623 2°56.049 124 -999 19 9.4
2008-11-07 07:39:03 51°13.623 2°56.049 124 -999 303 9.4
2008-11-07 07:39:07 51°13.623 2°56.049 124 -999 38 9.4
2008-11-07 07:39:13 51°13.624 2°56.049 124 -999 62 9.5
2008-11-07 07:39:18 51°13.624 2°56.049 124 -999 344 9.4
2008-11-07 07:39:23 51°13.624 2°56.049 124 -999 353 9.4
2008-11-07 07:39:28 51°13.624 2°56.049 124 -999 4 9.4
2008-11-07 07:39:33 51°13.624 2°56.049 124 -999 313 9.4
2008-11-07 07:39:38 51°13.624 2°56.049 124 -999 345 9.4
2008-11-07 07:39:43 51°13.623 2°56.049 124 -999 24 9.4
2008-11-07 07:39:48 51°13.623 2°56.049 124 -999 29 9.4
2008-11-07 07:39:53 51°13.623 2°56.049 124 -999 299 9.4
2008-11-07 07:39:58 51°13.623 2°56.049 124.1 -999 254 9.4
2008-11-07 07:40:03 51°13.623 2°56.049 124.1 -999 30 9.5
2008-11-07 07:40:08 51°13.623 2°56.049 124.1 -999 63 9.4
2008-11-07 07:40:13 51°13.623 2°56.049 124.1 -999 262 9.4
2008-11-07 07:40:18 51°13.623 2°56.049 124.1 -999 210 9.5
2008-11-07 07:40:23 51°13.623 2°56.049 124.1 -999 271 9.4
2008-11-07 07:40:28 51°13.623 2°56.05 124.1 -999 20 9.4
2008-11-07 07:40:33 51°13.623 2°56.05 124.1 -999 349 9.4
2008-11-07 07:40:38 51°13.623 2°56.05 124.1 -999 349 9.4
2008-11-07 07:40:43 51°13.623 2°56.05 124.1 -999 355 9.5
2008-11-07 07:40:47 51°13.623 2°56.05 124.1 -999 1 9.5
2008-11-07 07:40:53 51°13.623 2°56.05 124.1 -999 337 9.4
2008-11-07 07:40:58 51°13.623 2°56.05 124.1 -999 326 9.5
2008-11-07 07:41:03 51°13.623 2°56.05 124.1 -999 18 9.4
2008-11-07 07:41:07 51°13.623 2°56.05 124.1 -999 40 9.4
2008-11-07 07:41:13 51°13.623 2°56.049 124.1 -999 151 9.4
2008-11-07 07:41:18 51°13.623 2°56.049 124.1 -999 44 9.4
2008-11-07 07:41:23 51°13.623 2°56.049 124.1 -999 15 9.4
2008-11-07 07:41:27 51°13.623 2°56.049 124.1 -999 36 9.4
2008-11-07 07:41:33 51°13.623 2°56.049 124.1 -999 306 9.4
2008-11-07 07:41:38 51°13.623 2°56.049 124.1 -999 70 9.4
2008-11-07 07:41:43 51°13.623 2°56.049 124.1 -999 106 9.4
2008-11-07 07:41:48 51°13.623 2°56.05 124.1 -999 339 9.4
2008-11-07 07:41:53 51°13.623 2°56.05 124.1 -999 139 9.4
2008-11-07 07:41:58 51°13.623 2°56.05 124.1 -999 84 9.4
2008-11-07 07:42:03 51°13.623 2°56.05 124.1 -999 107 9.4
2008-11-07 07:42:07 51°13.623 2°56.05 124.1 -999 125 9.4
2008-11-07 07:42:13 51°13.623 2°56.05 124.1 -999 151 9.4
2008-11-07 07:42:18 51°13.623 2°56.05 124.1 -999 326 9.4
2008-11-07 07:42:23 51°13.623 2°56.05 124.1 -999 243 9.4
2008-11-07 07:42:28 51°13.623 2°56.05 124.1 -999 338 9.4
2008-11-07 07:42:33 51°13.623 2°56.05 124.1 -999 46 9.4
2008-11-07 07:42:38 51°13.623 2°56.05 124.1 -999 32 9.4
2008-11-07 07:42:43 51°13.623 2°56.05 124.1 -999 350 9.4
2008-11-07 07:42:48 51°13.623 2°56.05 124.1 -999 280 9.4
2008-11-07 07:42:53 51°13.624 2°56.05 124.1 -999 309 9.4
2008-11-07 07:42:58 51°13.624 2°56.05 124.1 -999 192 9.4
2008-11-07 07:43:03 51°13.624 2°56.05 124.1 -999 30 9.4
2008-11-07 07:43:07 51°13.624 2°56.05 124.1 -999 45 9.4
2008-11-07 07:43:13 51°13.624 2°56.05 124.1 -999 15 9.4
2008-11-07 07:43:18 51°13.624 2°56.05 124.1 -999 55 9.4
2008-11-07 07:43:23 51°13.624 2°56.05 124 -999 80 9.4
2008-11-07 07:43:27 51°13.624 2°56.05 124 -999 246 9.4
2008-11-07 07:43:33 51°13.623 2°56.05 124 -999 186 9.4
2008-11-07 07:43:38 51°13.623 2°56.05 124 -999 270 9.4
2008-11-07 07:43:43 51°13.623 2°56.049 124 -999 7 9.4
2008-11-07 07:43:48 51°13.623 2°56.049 124 -999 28 9.4
2008-11-07 07:43:53 51°13.623 2°56.049 124 -999 11 9.4
2008-11-07 07:43:58 51°13.623 2°56.049 124 -999 2 9.4
2008-11-07 07:44:03 51°13.623 2°56.049 124 0.1 13 9.4
2008-11-07 07:44:07 51°13.622 2°56.048 124 -999 53 9.4
2008-11-07 07:44:13 51°13.622 2°56.047 124 0.1 24 9.4
2008-11-07 07:44:18 51°13.621 2°56.047 124 0.1 26 9.4
2008-11-07 07:44:23 51°13.621 2°56.047 124 -999 20 9.4
2008-11-07 07:44:28 51°13.622 2°56.047 123.9 -999 334 9.4
2008-11-07 07:44:33 51°13.622 2°56.048 123.9 -999 206 9.4
2008-11-07 07:44:38 51°13.623 2°56.048 123.9 -999 188 9.4
2008-11-07 07:44:43 51°13.624 2°56.048 123.9 -999 47 9.4
2008-11-07 07:44:48 51°13.626 2°56.048 123.9 -999 10 9.4
2008-11-07 07:44:53 51°13.626 2°56.049 123.9 -999 50 9.4
2008-11-07 07:44:58 51°13.626 2°56.049 123.9 -999 47 9.4
2008-11-07 07:45:03 51°13.627 2°56.049 124 -999 80 9.4
2008-11-07 07:45:08 51°13.627 2°56.049 124 -999 152 9.4
2008-11-07 07:45:13 51°13.627 2°56.049 124 -999 109 9.4
2008-11-07 07:45:18 51°13.627 2°56.049 124 -999 84 9.4
2008-11-07 07:45:23 51°13.627 2°56.049 124 -999 70 9.4
2008-11-07 07:45:27 51°13.627 2°56.049 124 0.1 60 9.4
2008-11-07 07:45:33 51°13.625 2°56.048 123.6 -999 76 9.4
2008-11-07 07:45:38 51°13.624 2°56.048 123 0.1 133 9.4
2008-11-07 07:45:43 51°13.623 2°56.048 122.3 0.1 140 9.4
2008-11-07 07:45:48 51°13.622 2°56.048 121.6 0.1 182 9.4
2008-11-07 07:45:53 51°13.622 2°56.048 120.5 0.1 188 9.4
2008-11-07 07:45:58 51°13.622 2°56.048 119.4 0.1 185 9.4
2008-11-07 07:46:03 51°13.622 2°56.048 118.2 0.1 185 9.4
2008-11-07 07:46:07 51°13.621 2°56.048 116.9 0.1 185 9.4
2008-11-07 07:46:13 51°13.621 2°56.048 115.4 0.1 183 9.4
2008-11-07 07:46:18 51°13.621 2°56.048 113.9 0.1 191 9.4
2008-11-07 07:46:23 51°13.621 2°56.048 112.4 0.1 182 9.4
2008-11-07 07:46:27 51°13.621 2°56.048 111 0.1 195 9.4
2008-11-07 07:46:33 51°13.621 2°56.048 109.7 0.1 230 9.4
2008-11-07 07:46:38 51°13.621 2°56.048 108.3 0.2 258 9.4
2008-11-07 07:46:43 51°13.621 2°56.047 107 0.5 287 9.4
2008-11-07 07:46:48 51°13.622 2°56.045 106.1 0.9 286 9.4
2008-11-07 07:46:53 51°13.622 2°56.042 105.5 1.5 289 9.5
2008-11-07 07:46:58 51°13.623 2°56.037 105.1 1.8 288 9.4
2008-11-07 07:47:03 51°13.624 2°56.033 105 2.3 290 9.3
2008-11-07 07:47:08 51°13.626 2°56.027 105.3 2.6 290 -999
2008-11-07 07:47:13 51°13.627 2°56.021 106.3 2.9 292 -999
2008-11-07 07:47:18 51°13.629 2°56.015 106.8 3.2 290 -999
2008-11-07 07:47:23 51°13.63 2°56.008 107 3.4 291 -999
2008-11-07 07:47:28 51°13.632 2°56 107.2 3.6 290 -999
2008-11-07 07:47:33 51°13.634 2°55.992 107.4 3.8 290 -999
2008-11-07 07:47:38 51°13.636 2°55.984 107.9 3.9 290 -999
2008-11-07 07:47:43 51°13.638 2°55.976 108.3 4 290 -999
2008-11-07 07:47:48 51°13.64 2°55.967 109.2 4.2 290 -999
2008-11-07 07:47:53 51°13.642 2°55.958 109.6 4.4 291 -999
2008-11-07 07:47:58 51°13.644 2°55.949 109.9 4.6 291 -999
2008-11-07 07:48:03 51°13.646 2°55.939 110.2 4.7 291 -999
2008-11-07 07:48:08 51°13.649 2°55.93 110.5 4.8 292 -999
2008-11-07 07:48:13 51°13.651 2°55.92 111 4.9 292 -999
2008-11-07 07:48:18 51°13.654 2°55.909 111.4 5 293 -999
2008-11-07 07:48:23 51°13.656 2°55.899 111.5 5 293 -999
2008-11-07 07:48:28 51°13.659 2°55.889 111.6 5 293 -999
2008-11-07 07:48:33 51°13.662 2°55.879 111.2 5 293 -999
2008-11-07 07:48:38 51°13.665 2°55.868 110.7 5 293 -999
2008-11-07 07:48:43 51°13.667 2°55.858 109.9 5.1 292 -999
2008-11-07 07:48:48 51°13.67 2°55.848 109.2 4.9 292 -999
2008-11-07 07:48:53 51°13.673 2°55.838 108.4 4.8 292 -999
2008-11-07 07:48:58 51°13.675 2°55.828 107.6 4.6 291 -999
2008-11-07 07:49:03 51°13.677 2°55.819 106.5 4.5 291 -999
2008-11-07 07:49:08 51°13.679 2°55.81 105.4 4.3 290 -999
2008-11-07 07:49:13 51°13.681 2°55.802 103.5 4.1 288 -999
2008-11-07 07:49:18 51°13.683 2°55.794 101.9 3.9 287 -999
2008-11-07 07:49:23 51°13.684 2°55.786 99.9 3.7 286 -999
2008-11-07 07:49:28 51°13.686 2°55.779 97.9 3.5 284 -999
2008-11-07 07:49:33 51°13.687 2°55.771 95.8 3.4 283 13
2008-11-07 07:49:38 51°13.688 2°55.764 94.6 3.3 281 12.7
2008-11-07 07:49:43 51°13.689 2°55.757 93 3.2 281 12.9
2008-11-07 07:49:47 51°13.689 2°55.752 91 3 280 12.7
2008-11-07 07:49:53 51°13.69 2°55.745 89.1 2.5 278 12.6
2008-11-07 07:49:58 51°13.69 2°55.74 86.8 2.1 277 13.2
2008-11-07 07:50:03 51°13.69 2°55.736 83.5 2.1 276 13.6
2008-11-07 07:50:07 51°13.69 2°55.732 80.2 1.9 273 13.9
2008-11-07 07:50:13 51°13.69 2°55.728 77.6 1.8 272 13.8
2008-11-07 07:50:18 51°13.69 2°55.724 75.1 1.5 271 13.9
2008-11-07 07:50:23 51°13.691 2°55.722 72.5 1.1 272 14
2008-11-07 07:50:27 51°13.691 2°55.72 69.6 0.8 269 13.8
2008-11-07 07:50:33 51°13.691 2°55.719 65.7 0.5 312 13.6
2008-11-07 07:50:38 51°13.692 2°55.719 60.7 0.7 14 13.5
2008-11-07 07:50:43 51°13.694 2°55.721 55 1.2 27 13.7
2008-11-07 07:50:47 51°13.695 2°55.722 48.1 1.8 29 14.5
2008-11-07 07:50:53 51°13.699 2°55.725 41.3 2.5 22 15.2
2008-11-07 07:50:58 51°13.703 2°55.727 30.1 3 14 16
2008-11-07 07:51:03 51°13.708 2°55.727 20.6 3.4 5 14.9
2008-11-07 07:51:08 51°13.713 2°55.727 11.3 3.7 359 13.8
2008-11-07 07:51:13 51°13.719 2°55.726 2.1 3.8 351 13.6
2008-11-07 07:51:18 51°13.724 2°55.724 353.1 3.8 346 13.6
2008-11-07 07:51:23 51°13.729 2°55.721 346.1 3.9 343 12.9
2008-11-07 07:51:28 51°13.734 2°55.717 341.6 4.1 338 13
2008-11-07 07:51:33 51°13.74 2°55.713 337.7 4.6 337 13.8
2008-11-07 07:51:38 51°13.747 2°55.708 334.5 5 333 13.9
2008-11-07 07:51:43 51°13.754 2°55.703 332.3 5.5 334 13.6
2008-11-07 07:51:48 51°13.761 2°55.696 331.3 5.8 331 12.8
2008-11-07 07:51:53 51°13.769 2°55.69 330.9 6.3 332 12.7
2008-11-07 07:51:58 51°13.776 2°55.683 330.6 6.5 330 12.5
2008-11-07 07:52:03 51°13.785 2°55.676 330.4 6.9 333 12.6
2008-11-07 07:52:08 51°13.793 2°55.668 331.6 7.1 332 12.6
2008-11-07 07:52:13 51°13.802 2°55.66 332 7.4 333 12.6
2008-11-07 07:52:18 51°13.811 2°55.652 332.2 7.5 332 12.9
2008-11-07 07:52:23 51°13.821 2°55.644 332.2 7.6 334 12.9
2008-11-07 07:52:27 51°13.828 2°55.637 332.9 7.8 334 13.1
2008-11-07 07:52:33 51°13.84 2°55.628 333.6 8 334 12.5
2008-11-07 07:52:38 51°13.851 2°55.62 333.7 8.1 334 12.7
2008-11-07 07:52:43 51°13.861 2°55.612 333.7 8.2 334 12.5
2008-11-07 07:52:47 51°13.869 2°55.606 333.8 8.3 334 12.7
2008-11-07 07:52:53 51°13.882 2°55.596 333.8 8.3 334 12.5
2008-11-07 07:52:58 51°13.892 2°55.588 333.8 8.4 334 12.6
2008-11-07 07:53:03 51°13.903 2°55.581 334.2 8.4 335 12.6
2008-11-07 07:53:08 51°13.913 2°55.573 334.3 8.3 334 12.7
2008-11-07 07:53:13 51°13.923 2°55.565 334 8.1 336 12.6
2008-11-07 07:53:18 51°13.933 2°55.559 334.7 7.8 336 12.7
2008-11-07 07:53:23 51°13.942 2°55.552 335.6 7.4 336 12.6
2008-11-07 07:53:28 51°13.951 2°55.546 335.9 7.1 336 12.6
2008-11-07 07:53:33 51°13.96 2°55.54 335.9 6.8 336 12.9
2008-11-07 07:53:38 51°13.968 2°55.534 335.6 6.6 336 12.6
2008-11-07 07:53:43 51°13.976 2°55.527 335.2 6.3 335 12.7
2008-11-07 07:53:48 51°13.984 2°55.522 334.5 6.2 336 12.5
2008-11-07 07:53:53 51°13.991 2°55.516 334.5 6 335 12.6
2008-11-07 07:53:58 51°13.999 2°55.511 334.2 5.9 335 12.5
2008-11-07 07:54:03 51°14.006 2°55.505 333.8 5.7 334 12.4
2008-11-07 07:54:08 51°14.013 2°55.5 333.2 5.6 334 12.3
2008-11-07 07:54:13 51°14.02 2°55.495 333.1 5.5 333 12.2
2008-11-07 07:54:18 51°14.027 2°55.49 333 5.4 334 12.3
2008-11-07 07:54:23 51°14.033 2°55.484 332.8 5.3 333 12.1
2008-11-07 07:54:28 51°14.04 2°55.479 332.5 5.3 333 12.1
2008-11-07 07:54:33 51°14.046 2°55.474 332.3 5.2 333 12.1
2008-11-07 07:54:38 51°14.052 2°55.469 332.3 5.1 333 12.1
2008-11-07 07:54:43 51°14.059 2°55.463 332.6 5.1 334 12.1
2008-11-07 07:54:47 51°14.064 2°55.459 332.8 5 334 12.1
2008-11-07 07:54:53 51°14.071 2°55.454 333 5 334 12.2
2008-11-07 07:54:58 51°14.077 2°55.449 333.2 4.9 334 12
2008-11-07 07:55:03 51°14.083 2°55.444 333.3 4.9 333 12.1
2008-11-07 07:55:07 51°14.088 2°55.44 333.3 4.9 333 12.1
2008-11-07 07:55:13 51°14.095 2°55.434 333.1 4.9 332 12
2008-11-07 07:55:18 51°14.102 2°55.429 332.5 5.1 332 11.9
2008-11-07 07:55:23 51°14.108 2°55.423 332.2 5.2 332 11.9
2008-11-07 07:55:28 51°14.115 2°55.418 331.9 5.4 332 11.8
2008-11-07 07:55:33 51°14.121 2°55.412 331.7 5.5 332 11.8
2008-11-07 07:55:38 51°14.128 2°55.406 331.5 5.7 331 12.1
2008-11-07 07:55:43 51°14.136 2°55.399 330.9 6.1 330 12
2008-11-07 07:55:48 51°14.143 2°55.392 330.1 6.4 329 12.2
2008-11-07 07:55:53 51°14.152 2°55.384 329.1 7 328 12.1
2008-11-07 07:55:58 51°14.16 2°55.374 328 7.4 327 12.1
2008-11-07 07:56:03 51°14.17 2°55.365 327.3 7.9 327 12.2
2008-11-07 07:56:08 51°14.179 2°55.354 327.1 8.2 325 12.2
2008-11-07 07:56:13 51°14.189 2°55.343 325.4 8.6 324 12
2008-11-07 07:56:18 51°14.199 2°55.331 323.9 8.8 322 12
2008-11-07 07:56:23 51°14.208 2°55.319 322.1 9 321 12.1
2008-11-07 07:56:27 51°14.217 2°55.309 321.4 9.3 322 12
2008-11-07 07:56:33 51°14.229 2°55.292 321.4 9.6 319 11.6
2008-11-07 07:56:38 51°14.239 2°55.277 319.8 9.9 318 11.7
2008-11-07 07:56:43 51°14.249 2°55.262 317.8 10.1 316 12
2008-11-07 07:56:48 51°14.26 2°55.246 316.4 10.4 316 11.9
2008-11-07 07:56:53 51°14.27 2°55.229 316.4 10.5 316 11.8
2008-11-07 07:56:58 51°14.28 2°55.212 315.7 10.8 312 11.7
2008-11-07 07:57:03 51°14.29 2°55.193 313 10.9 310 11.7
2008-11-07 07:57:07 51°14.298 2°55.178 310.4 11 310 11.7
2008-11-07 07:57:13 51°14.31 2°55.155 309.8 11.4 310 11.6
2008-11-07 07:57:18 51°14.32 2°55.135 309.7 11.5 309 11.8
2008-11-07 07:57:23 51°14.33 2°55.115 309.1 11.7 309 12
2008-11-07 07:57:28 51°14.341 2°55.095 309.1 11.8 309 12.2
2008-11-07 07:57:33 51°14.351 2°55.074 309.5 12.1 308 12.2
2008-11-07 07:57:38 51°14.361 2°55.052 308.4 12.2 308 12.1
2008-11-07 07:57:43 51°14.372 2°55.031 308.2 12.3 308 12.1
2008-11-07 07:57:48 51°14.382 2°55.009 308 12.3 306 12.1
2008-11-07 07:57:53 51°14.392 2°54.987 306.2 12.3 306 11.9
2008-11-07 07:57:58 51°14.401 2°54.965 304.9 12.3 305 11.9
2008-11-07 07:58:03 51°14.411 2°54.942 303.8 12.3 303 11.9
2008-11-07 07:58:08 51°14.42 2°54.92 302.2 12.3 302 12
2008-11-07 07:58:13 51°14.429 2°54.897 300.4 12.2 303 12.2
2008-11-07 07:58:18 51°14.438 2°54.875 299.5 12.1 303 12.3
2008-11-07 07:58:23 51°14.447 2°54.852 299.3 12.1 302 12.4
2008-11-07 07:58:28 51°14.455 2°54.829 298.9 12.1 301 12.6
2008-11-07 07:58:33 51°14.464 2°54.806 298.2 12 299 12.7
2008-11-07 07:58:38 51°14.471 2°54.783 296.2 11.9 296 12.7
2008-11-07 07:58:43 51°14.478 2°54.759 293.4 11.9 298 12.7
2008-11-07 07:58:48 51°14.486 2°54.736 293.4 12 297 12.7
2008-11-07 07:58:53 51°14.494 2°54.713 294 12 299 12.7
2008-11-07 07:58:58 51°14.502 2°54.69 294.6 12 299 12.7
2008-11-07 07:59:03 51°14.51 2°54.667 295.3 12 299 12.7
2008-11-07 07:59:07 51°14.517 2°54.648 295.8 12 299 12.7
2008-11-07 07:59:13 51°14.527 2°54.62 295.8 12.1 300 12.7
2008-11-07 07:59:18 51°14.535 2°54.597 296.2 12 299 12.8
2008-11-07 07:59:23 51°14.544 2°54.574 296 12 300 12.6
2008-11-07 07:59:27 51°14.55 2°54.556 295.8 12 300 12.6
2008-11-07 07:59:33 51°14.56 2°54.528 295.8 12 300 12.6
2008-11-07 07:59:38 51°14.568 2°54.505 296 12 300 12.6
2008-11-07 07:59:43 51°14.577 2°54.482 296 12 300 12.4
2008-11-07 07:59:48 51°14.585 2°54.459 296 12 299 12.2
2008-11-07 07:59:53 51°14.593 2°54.436 295.7 12 300 12.3
2008-11-07 07:59:58 51°14.601 2°54.413 296 12 300 12.1
2008-11-07 08:00:03 51°14.61 2°54.39 296.3 12 300 12.2
2008-11-07 08:00:08 51°14.618 2°54.367 296.2 12 300 11.9
2008-11-07 08:00:13 51°14.626 2°54.344 296 12 300 12
2008-11-07 08:00:18 51°14.634 2°54.321 296 12 300 11.9
2008-11-07 08:00:23 51°14.643 2°54.298 295.9 12 300 12
2008-11-07 08:00:28 51°14.651 2°54.275 296.1 12 300 11.9
2008-11-07 08:00:33 51°14.659 2°54.252 296.1 12 300 12
2008-11-07 08:00:38 51°14.667 2°54.229 295.9 12 299 12.4
2008-11-07 08:00:43 51°14.676 2°54.206 295.6 12 300 11.9
2008-11-07 08:00:48 51°14.684 2°54.182 295.7 12 299 11.8
2008-11-07 08:00:53 51°14.692 2°54.159 295.5 12 300 11.8
2008-11-07 08:00:58 51°14.701 2°54.137 295.7 12 300 11.8
2008-11-07 08:01:03 51°14.709 2°54.114 296 12 300 11.7
2008-11-07 08:01:08 51°14.717 2°54.091 296 12.1 300 11.8
2008-11-07 08:01:13 51°14.726 2°54.068 295.8 12 300 11.8
2008-11-07 08:01:18 51°14.734 2°54.045 295.7 12 300 11.9
2008-11-07 08:01:23 51°14.742 2°54.021 295.7 12 299 11.6
2008-11-07 08:01:27 51°14.749 2°54.003 295.5 12 299 11.5
2008-11-07 08:01:33 51°14.758 2°53.975 295.3 12 299 11.5
2008-11-07 08:01:38 51°14.766 2°53.952 295.1 12 298 11.4
2008-11-07 08:01:43 51°14.774 2°53.929 294.9 12 299 11.2
2008-11-07 08:01:48 51°14.782 2°53.905 295.3 12.1 298 11.3
2008-11-07 08:01:53 51°14.79 2°53.882 295.5 12.1 298 11.2
2008-11-07 08:01:58 51°14.798 2°53.858 295.3 12.1 299 11.2
2008-11-07 08:02:03 51°14.806 2°53.835 295.4 12.1 299 11.1
2008-11-07 08:02:08 51°14.814 2°53.811 295.6 12 298 11.3
2008-11-07 08:02:13 51°14.822 2°53.788 295.6 12.1 299 11.3
2008-11-07 08:02:18 51°14.83 2°53.765 295.9 12.1 299 11.3
2008-11-07 08:02:23 51°14.838 2°53.741 296.1 12.1 299 11.2
2008-11-07 08:02:28 51°14.846 2°53.717 296.1 12.1 299 11.2
2008-11-07 08:02:33 51°14.854 2°53.694 296.5 12.2 299 11.3
2008-11-07 08:02:38 51°14.862 2°53.67 296.5 12.2 298 11.2
2008-11-07 08:02:43 51°14.871 2°53.646 296.1 12.2 299 11.1
2008-11-07 08:02:48 51°14.878 2°53.622 296 12.2 297 11.2
2008-11-07 08:02:53 51°14.886 2°53.599 295.5 12.2 298 11.3
2008-11-07 08:02:58 51°14.894 2°53.575 295.4 12.2 298 11.3
2008-11-07 08:03:03 51°14.902 2°53.551 295.4 12.2 298 11.1
2008-11-07 08:03:08 51°14.91 2°53.528 295.5 12.2 298 11.1
2008-11-07 08:03:13 51°14.918 2°53.504 295.5 12.2 298 11.2
2008-11-07 08:03:18 51°14.926 2°53.48 295.5 12.3 298 11.2
2008-11-07 08:03:23 51°14.934 2°53.456 295.3 12.2 298 11.2
2008-11-07 08:03:28 51°14.943 2°53.433 295.3 12.2 299 11.1
2008-11-07 08:03:33 51°14.951 2°53.409 295.5 12.2 299 11.2
2008-11-07 08:03:38 51°14.959 2°53.385 295.6 12.2 299 11.3
2008-11-07 08:03:43 51°14.967 2°53.361 295.9 12.2 299 11.3
2008-11-07 08:03:47 51°14.973 2°53.343 295.9 12.3 299 11.3
2008-11-07 08:03:53 51°14.983 2°53.314 295.8 12.3 299 11.3
2008-11-07 08:03:58 51°14.991 2°53.29 295.7 12.2 298 11.3
2008-11-07 08:04:03 51°14.999 2°53.267 295.3 12.3 298 11.3
2008-11-07 08:04:08 51°15.007 2°53.243 295 12.2 298 11.3
2008-11-07 08:04:13 51°15.016 2°53.219 295 12.3 299 11.3
2008-11-07 08:04:18 51°15.024 2°53.196 295.3 12.2 299 11.3
2008-11-07 08:04:23 51°15.032 2°53.172 295.7 12.2 299 11.3
2008-11-07 08:04:27 51°15.039 2°53.154 296 12.2 300 11.4
2008-11-07 08:04:33 51°15.049 2°53.126 296.1 12.2 299 11.4
2008-11-07 08:04:38 51°15.057 2°53.102 296 12.2 299 11.3
2008-11-07 08:04:43 51°15.065 2°53.078 295.6 12.2 299 11.2
2008-11-07 08:04:48 51°15.073 2°53.055 295.4 12.1 299 11.3
2008-11-07 08:04:53 51°15.082 2°53.032 295.5 12.1 299 11.4
2008-11-07 08:04:58 51°15.09 2°53.008 295.7 12.1 299 11.5
2008-11-07 08:05:03 51°15.098 2°52.985 295.6 12.2 299 11.5
2008-11-07 08:05:08 51°15.106 2°52.961 295.6 12.2 299 11.6
2008-11-07 08:05:13 51°15.114 2°52.938 295.3 12.1 299 11.7
2008-11-07 08:05:18 51°15.123 2°52.914 295.2 12.2 299 11.8
2008-11-07 08:05:23 51°15.131 2°52.891 295.1 12.1 299 11.9
2008-11-07 08:05:28 51°15.139 2°52.868 295.1 12.1 300 11.8
2008-11-07 08:05:33 51°15.147 2°52.844 295.4 12.1 299 11.8
2008-11-07 08:05:38 51°15.155 2°52.821 295.8 12.1 299 11.9
2008-11-07 08:05:43 51°15.163 2°52.798 295.3 12.1 299 11.9
2008-11-07 08:05:48 51°15.171 2°52.774 295.1 12.1 299 11.9
2008-11-07 08:05:53 51°15.179 2°52.751 294.9 12.1 299 12
2008-11-07 08:05:58 51°15.187 2°52.727 294.8 12.1 299 12.1
2008-11-07 08:06:03 51°15.195 2°52.704 295 12.1 298 12.1
2008-11-07 08:06:08 51°15.203 2°52.68 295.1 12.1 299 12.2
2008-11-07 08:06:13 51°15.211 2°52.657 295.1 12.1 298 12.1
2008-11-07 08:06:18 51°15.219 2°52.633 294.6 12.1 298 12.1
2008-11-07 08:06:23 51°15.226 2°52.61 294 12 297 12.1
2008-11-07 08:06:27 51°15.232 2°52.59 293.7 12 296 12.2
2008-11-07 08:06:33 51°15.241 2°52.562 293.3 12.1 296 12.2
2008-11-07 08:06:38 51°15.249 2°52.538 293.2 12.1 296 12.1
2008-11-07 08:06:43 51°15.256 2°52.514 292.8 12 296 12.2
2008-11-07 08:06:48 51°15.263 2°52.49 292.7 12 296 12.3
2008-11-07 08:06:53 51°15.27 2°52.466 293.2 12 295 12.3
2008-11-07 08:06:58 51°15.277 2°52.442 292.4 12 295 12.3
2008-11-07 08:07:03 51°15.284 2°52.418 291.7 12 295 12.4
2008-11-07 08:07:08 51°15.291 2°52.394 291.4 12 293 12.4
2008-11-07 08:07:13 51°15.298 2°52.37 291 12 294 12.5
2008-11-07 08:07:18 51°15.304 2°52.345 290.7 11.9 291 12.5
2008-11-07 08:07:23 51°15.31 2°52.321 289.3 11.9 292 12.5
2008-11-07 08:07:28 51°15.316 2°52.296 288.6 12 291 12.6
2008-11-07 08:07:33 51°15.321 2°52.271 287.8 11.9 290 12.7
2008-11-07 08:07:38 51°15.327 2°52.246 287 11.9 290 12.7
2008-11-07 08:07:43 51°15.332 2°52.221 286.6 11.9 289 12.7
2008-11-07 08:07:48 51°15.337 2°52.196 286 11.9 289 12.8
2008-11-07 08:07:53 51°15.343 2°52.171 285.9 11.9 289 12.9
2008-11-07 08:07:58 51°15.348 2°52.146 285.9 11.9 288 12.9
2008-11-07 08:08:03 51°15.353 2°52.122 285.6 11.9 289 13
2008-11-07 08:08:07 51°15.357 2°52.101 285.5 11.9 289 13
2008-11-07 08:08:13 51°15.364 2°52.071 285.5 11.9 289 13.1
2008-11-07 08:08:18 51°15.369 2°52.047 285.9 11.9 289 13.1
2008-11-07 08:08:23 51°15.374 2°52.021 285.5 11.9 287 13.1
2008-11-07 08:08:27 51°15.378 2°52.001 284.4 11.9 288 13.2
2008-11-07 08:08:33 51°15.384 2°51.971 284.1 11.9 286 13.2
2008-11-07 08:08:38 51°15.388 2°51.945 283.4 11.9 286 13.2
2008-11-07 08:08:43 51°15.393 2°51.92 283 11.9 285 13.2
2008-11-07 08:08:47 51°15.396 2°51.9 282.7 11.9 286 13.3
2008-11-07 08:08:53 51°15.402 2°51.87 282.7 11.9 286 13.4
2008-11-07 08:08:58 51°15.406 2°51.844 282.5 11.9 285 13.3
2008-11-07 08:09:03 51°15.411 2°51.819 282.3 11.9 286 13.3
2008-11-07 08:09:08 51°15.415 2°51.793 282.4 11.9 285 13.3
2008-11-07 08:09:13 51°15.419 2°51.768 282.2 11.9 286 13.3
2008-11-07 08:09:18 51°15.424 2°51.743 282.3 11.9 286 13.4
2008-11-07 08:09:23 51°15.429 2°51.717 282.6 11.9 286 13.5
2008-11-07 08:09:28 51°15.433 2°51.692 283 11.9 286 13.4
2008-11-07 08:09:33 51°15.438 2°51.667 282.9 11.9 286 13.6
2008-11-07 08:09:38 51°15.442 2°51.642 282.7 11.9 286 13.6
2008-11-07 08:09:43 51°15.446 2°51.616 282.6 11.9 285 13.6
2008-11-07 08:09:48 51°15.451 2°51.591 282.4 11.9 287 13.7
2008-11-07 08:09:53 51°15.456 2°51.565 282.9 11.9 285 13.8
2008-11-07 08:09:58 51°15.46 2°51.54 282.8 11.9 285 13.7
2008-11-07 08:10:03 51°15.464 2°51.515 282.6 11.9 285 13.7
2008-11-07 08:10:08 51°15.469 2°51.489 282.5 11.9 286 13.8
2008-11-07 08:10:13 51°15.474 2°51.464 282.6 11.9 286 13.9
2008-11-07 08:10:18 51°15.478 2°51.439 282.9 11.9 286 13.9
2008-11-07 08:10:23 51°15.483 2°51.414 282.8 11.9 286 13.9
2008-11-07 08:10:28 51°15.487 2°51.388 282.8 11.9 286 13.9
2008-11-07 08:10:33 51°15.492 2°51.363 282.8 11.9 287 13.9
2008-11-07 08:10:38 51°15.496 2°51.338 283 11.9 286 14
2008-11-07 08:10:43 51°15.501 2°51.312 283.1 11.9 286 14
2008-11-07 08:10:47 51°15.505 2°51.292 283 11.9 286 14.1
2008-11-07 08:10:53 51°15.51 2°51.262 283 11.9 286 14
2008-11-07 08:10:58 51°15.515 2°51.237 283 11.9 286 14.1
2008-11-07 08:11:03 51°15.519 2°51.211 283 11.9 286 14.2
2008-11-07 08:11:08 51°15.523 2°51.186 282.7 11.8 285 14.2
2008-11-07 08:11:13 51°15.528 2°51.161 281.7 11.8 284 14.1
2008-11-07 08:11:18 51°15.532 2°51.135 281.2 11.9 284 14.1
2008-11-07 08:11:23 51°15.535 2°51.11 281.1 11.9 283 14
2008-11-07 08:11:28 51°15.539 2°51.084 280.7 11.8 283 14.1
2008-11-07 08:11:33 51°15.543 2°51.059 280.3 11.8 283 14.3
2008-11-07 08:11:38 51°15.547 2°51.033 280 11.8 283 14.2
2008-11-07 08:11:43 51°15.55 2°51.008 279.8 11.8 283 14.2
2008-11-07 08:11:48 51°15.554 2°50.983 279.4 11.8 284 14.2
2008-11-07 08:11:53 51°15.558 2°50.957 280 11.8 283 14.3
2008-11-07 08:11:58 51°15.562 2°50.932 280 11.8 284 14.2
2008-11-07 08:12:03 51°15.566 2°50.906 280.2 11.8 283 14.2
2008-11-07 08:12:08 51°15.569 2°50.881 280.4 11.8 284 14.2
2008-11-07 08:12:13 51°15.573 2°50.855 280.4 11.9 284 14.2
2008-11-07 08:12:18 51°15.577 2°50.83 280.4 11.9 284 14.1
2008-11-07 08:12:23 51°15.581 2°50.805 280.6 11.8 283 14.2
2008-11-07 08:12:27 51°15.584 2°50.784 280.6 11.8 283 14.2
2008-11-07 08:12:33 51°15.589 2°50.754 280.3 11.8 284 14.2
2008-11-07 08:12:38 51°15.593 2°50.728 280.6 11.8 283 14.3
2008-11-07 08:12:43 51°15.597 2°50.703 280.4 11.8 285 14.3
2008-11-07 08:12:48 51°15.601 2°50.678 281.2 11.8 285 14.2
2008-11-07 08:12:53 51°15.605 2°50.652 281.6 11.8 285 14.2
2008-11-07 08:12:58 51°15.61 2°50.627 282.2 11.9 286 14.3
2008-11-07 08:13:03 51°15.615 2°50.602 282.6 11.8 286 14.3
2008-11-07 08:13:07 51°15.618 2°50.582 282.9 11.9 286 14.2
2008-11-07 08:13:13 51°15.624 2°50.552 283.1 11.9 286 14.1
2008-11-07 08:13:18 51°15.629 2°50.527 283.8 11.9 287 14.2
2008-11-07 08:13:23 51°15.633 2°50.501 284 11.9 286 14.2
2008-11-07 08:13:28 51°15.639 2°50.476 284 11.9 287 14.2
2008-11-07 08:13:33 51°15.643 2°50.451 284.1 11.9 287 14.1
2008-11-07 08:13:38 51°15.648 2°50.426 284.1 11.9 286 14.2
2008-11-07 08:13:43 51°15.653 2°50.4 283.6 11.9 287 14.2
2008-11-07 08:13:48 51°15.657 2°50.375 283.6 11.9 287 14.2
2008-11-07 08:13:53 51°15.662 2°50.35 283.9 11.9 287 14.2
2008-11-07 08:13:58 51°15.667 2°50.325 284 11.9 287 14.2
2008-11-07 08:14:03 51°15.672 2°50.299 284 11.9 287 14.2
2008-11-07 08:14:08 51°15.677 2°50.274 284 11.9 287 14.2
2008-11-07 08:14:13 51°15.682 2°50.249 284 11.9 288 14.2
2008-11-07 08:14:18 51°15.688 2°50.224 284.6 11.9 290 14.3
2008-11-07 08:14:23 51°15.693 2°50.199 285.7 11.9 288 14.3
2008-11-07 08:14:28 51°15.699 2°50.174 285.8 12 290 14.2
2008-11-07 08:14:33 51°15.704 2°50.149 286.6 11.9 289 14.2
2008-11-07 08:14:38 51°15.709 2°50.124 286.6 11.9 290 14.3
2008-11-07 08:14:43 51°15.715 2°50.1 286.6 11.9 289 14.3
2008-11-07 08:14:47 51°15.719 2°50.08 286.6 11.9 290 14.2
2008-11-07 08:14:53 51°15.725 2°50.05 286.3 11.9 288 14.2
2008-11-07 08:14:58 51°15.731 2°50.025 285.9 11.9 289 14.2
2008-11-07 08:15:03 51°15.736 2°50 286.1 11.9 288 14
2008-11-07 08:15:07 51°15.741 2°49.98 286 11.9 290 14
2008-11-07 08:15:13 51°15.747 2°49.95 286.3 11.9 289 13.8
2008-11-07 08:15:18 51°15.752 2°49.925 286.5 11.9 288 13.7
2008-11-07 08:15:23 51°15.757 2°49.9 286.4 11.8 287 13.6
2008-11-07 08:15:28 51°15.762 2°49.875 285.2 11.9 288 13.4
2008-11-07 08:15:33 51°15.767 2°49.85 284.8 11.8 286 13.3
2008-11-07 08:15:38 51°15.772 2°49.825 283.8 11.8 287 13.1
2008-11-07 08:15:43 51°15.776 2°49.8 283.8 11.8 287 13
2008-11-07 08:15:48 51°15.781 2°49.775 284.1 11.9 288 12.8
2008-11-07 08:15:53 51°15.786 2°49.75 284.7 11.9 288 12.7
2008-11-07 08:15:58 51°15.792 2°49.725 285.2 11.9 288 12.6
2008-11-07 08:16:03 51°15.797 2°49.7 285.5 11.8 289 12.5
2008-11-07 08:16:08 51°15.802 2°49.675 285.7 11.8 287 12.3
2008-11-07 08:16:13 51°15.807 2°49.65 285 11.8 285 12.2
2008-11-07 08:16:18 51°15.811 2°49.625 284.1 11.8 286 12.1
2008-11-07 08:16:23 51°15.815 2°49.6 283.1 11.8 285 12
2008-11-07 08:16:28 51°15.819 2°49.575 282.8 11.9 285 12
2008-11-07 08:16:33 51°15.823 2°49.549 282.2 11.8 284 12
2008-11-07 08:16:38 51°15.827 2°49.524 281.6 11.8 284 11.9
2008-11-07 08:16:43 51°15.831 2°49.498 281.3 11.9 283 11.8
2008-11-07 08:16:48 51°15.834 2°49.473 281.1 11.9 284 11.8
2008-11-07 08:16:53 51°15.838 2°49.447 281.2 11.9 284 11.9
2008-11-07 08:16:58 51°15.842 2°49.422 281.5 11.9 284 11.9
2008-11-07 08:17:03 51°15.846 2°49.396 281.7 11.9 284 11.9
2008-11-07 08:17:07 51°15.849 2°49.376 282 11.9 284 11.8
2008-11-07 08:17:13 51°15.854 2°49.345 281.6 11.9 283 11.9
2008-11-07 08:17:18 51°15.858 2°49.32 281.4 11.9 284 11.9
2008-11-07 08:17:23 51°15.861 2°49.294 281.6 11.9 283 11.9
2008-11-07 08:17:27 51°15.865 2°49.274 281.7 11.9 285 12
2008-11-07 08:17:33 51°15.87 2°49.243 282.6 12 284 12
2008-11-07 08:17:38 51°15.874 2°49.217 282.7 12 285 12.1
2008-11-07 08:17:43 51°15.879 2°49.192 282.6 12 285 12.2
2008-11-07 08:17:48 51°15.883 2°49.166 282.9 12 286 12.1
2008-11-07 08:17:53 51°15.888 2°49.141 283.8 12 286 12.2
2008-11-07 08:17:58 51°15.893 2°49.116 283.9 12 288 12.4
2008-11-07 08:18:03 51°15.898 2°49.09 284.4 12 288 12.4
2008-11-07 08:18:08 51°15.903 2°49.065 285.4 12 287 12.6
2008-11-07 08:18:13 51°15.908 2°49.04 285.2 12 288 12.7
2008-11-07 08:18:18 51°15.913 2°49.014 285.3 12 288 12.8
2008-11-07 08:18:23 51°15.918 2°48.989 285.7 12 288 12.9
2008-11-07 08:18:28 51°15.923 2°48.964 285.4 11.9 288 12.9
2008-11-07 08:18:33 51°15.928 2°48.939 285.3 12 286 13.1
2008-11-07 08:18:38 51°15.933 2°48.914 285 12 288 13.2
2008-11-07 08:18:43 51°15.937 2°48.888 284.9 11.9 286 13.2
2008-11-07 08:18:48 51°15.942 2°48.863 284.1 11.9 285 13.3
2008-11-07 08:18:53 51°15.946 2°48.837 283.6 11.9 286 13.5
2008-11-07 08:18:58 51°15.95 2°48.812 283.3 11.9 284 13.5
2008-11-07 08:19:03 51°15.955 2°48.787 282.7 11.9 286 13.6
2008-11-07 08:19:08 51°15.959 2°48.761 282.8 11.9 284 13.8
2008-11-07 08:19:13 51°15.963 2°48.736 282.8 11.9 285 13.8
2008-11-07 08:19:18 51°15.968 2°48.71 282.7 11.9 285 14
2008-11-07 08:19:23 51°15.972 2°48.685 282.5 11.9 285 14.2
2008-11-07 08:19:28 51°15.976 2°48.66 282.5 11.9 285 14.4
2008-11-07 08:19:33 51°15.981 2°48.634 282.4 11.9 285 14.6
2008-11-07 08:19:38 51°15.985 2°48.609 282.4 11.9 285 14.8
2008-11-07 08:19:43 51°15.989 2°48.583 282.4 11.9 285 15
2008-11-07 08:19:48 51°15.993 2°48.558 282.4 11.9 285 15.3
2008-11-07 08:19:53 51°15.997 2°48.532 282.4 11.9 285 15.3
2008-11-07 08:19:58 51°16.002 2°48.507 282.4 11.9 284 15.5
2008-11-07 08:20:03 51°16.006 2°48.481 282.1 11.9 284 15.6
2008-11-07 08:20:08 51°16.01 2°48.456 282 11.9 284 15.6
2008-11-07 08:20:13 51°16.014 2°48.43 281.8 11.9 284 15.8
2008-11-07 08:20:18 51°16.018 2°48.405 282.1 11.9 285 15.8
2008-11-07 08:20:23 51°16.022 2°48.38 282.3 11.9 284 15.9
2008-11-07 08:20:28 51°16.026 2°48.354 282.2 11.9 285 16
2008-11-07 08:20:33 51°16.031 2°48.329 282.2 11.9 285 16
2008-11-07 08:20:38 51°16.035 2°48.303 282.2 11.9 284 16.1
2008-11-07 08:20:43 51°16.039 2°48.278 281.9 11.9 285 16.2
2008-11-07 08:20:48 51°16.043 2°48.252 281.9 11.9 284 16.3
2008-11-07 08:20:53 51°16.047 2°48.227 282 11.9 285 16.4
2008-11-07 08:20:58 51°16.051 2°48.202 282 11.9 284 16.4
2008-11-07 08:21:03 51°16.056 2°48.176 281.9 11.9 285 16.6
2008-11-07 08:21:08 51°16.059 2°48.151 282.1 11.9 284 16.6
2008-11-07 08:21:13 51°16.063 2°48.125 282 11.8 284 16.7
2008-11-07 08:21:18 51°16.067 2°48.1 281.5 11.9 283 16.6
2008-11-07 08:21:23 51°16.071 2°48.074 280.7 11.8 283 16.7
2008-11-07 08:21:28 51°16.074 2°48.049 280.3 11.8 282 16.7
2008-11-07 08:21:33 51°16.077 2°48.023 279.3 11.8 281 16.8
2008-11-07 08:21:38 51°16.08 2°47.997 278.6 11.8 280 16.6
2008-11-07 08:21:43 51°16.083 2°47.972 277.9 11.8 280 16.8
2008-11-07 08:21:47 51°16.085 2°47.951 277.8 11.8 280 16.7
2008-11-07 08:21:53 51°16.089 2°47.921 277.6 11.8 280 16.8
2008-11-07 08:21:58 51°16.091 2°47.895 277.3 11.8 279 16.8
2008-11-07 08:22:03 51°16.094 2°47.869 277 11.8 280 16.8
2008-11-07 08:22:08 51°16.097 2°47.843 276.9 11.8 280 16.8
2008-11-07 08:22:13 51°16.099 2°47.818 277 11.8 279 16.9
2008-11-07 08:22:18 51°16.102 2°47.792 276.9 11.8 280 16.9
2008-11-07 08:22:23 51°16.105 2°47.766 277.2 11.8 279 16.9
2008-11-07 08:22:27 51°16.107 2°47.746 276.4 11.8 280 16.8
2008-11-07 08:22:33 51°16.11 2°47.715 277.2 11.7 280 16.7
2008-11-07 08:22:38 51°16.113 2°47.689 276.8 11.8 281 16.7
2008-11-07 08:22:43 51°16.116 2°47.664 276.9 11.8 279 16.6
2008-11-07 08:22:48 51°16.119 2°47.638 277.1 11.7 280 16.6
2008-11-07 08:22:53 51°16.122 2°47.613 277.9 11.8 281 16.5
2008-11-07 08:22:58 51°16.125 2°47.587 278.2 11.8 281 16.5
2008-11-07 08:23:03 51°16.129 2°47.561 278.7 11.8 282 16.7
2008-11-07 08:23:08 51°16.133 2°47.536 279.3 11.8 282 16.7
2008-11-07 08:23:13 51°16.136 2°47.51 280.1 11.8 282 16.7
2008-11-07 08:23:18 51°16.139 2°47.485 280.1 11.8 281 16.7
2008-11-07 08:23:23 51°16.143 2°47.459 279.3 11.9 284 16.5
2008-11-07 08:23:28 51°16.146 2°47.434 280.5 11.8 282 16.6
2008-11-07 08:23:33 51°16.151 2°47.408 279.9 11.9 284 16.4
2008-11-07 08:23:38 51°16.154 2°47.383 280.5 11.8 283 16.3
2008-11-07 08:23:43 51°16.158 2°47.357 280.6 11.8 283 16.3
2008-11-07 08:23:47 51°16.16 2°47.337 279.7 11.8 282 16
2008-11-07 08:23:53 51°16.164 2°47.306 279.2 11.8 282 16
2008-11-07 08:23:58 51°16.167 2°47.281 278.7 11.7 280 15.8
2008-11-07 08:24:03 51°16.17 2°47.255 277.9 11.7 281 15.7
2008-11-07 08:24:08 51°16.173 2°47.23 277.5 11.8 280 15.5
2008-11-07 08:24:13 51°16.176 2°47.204 277.4 11.7 279 15.4
2008-11-07 08:24:18 51°16.179 2°47.179 277 11.8 280 14.8
2008-11-07 08:24:23 51°16.182 2°47.153 276.8 11.7 281 14.7
2008-11-07 08:24:27 51°16.184 2°47.133 277.2 11.7 281 14.9
2008-11-07 08:24:33 51°16.187 2°47.102 277.6 11.8 280 14.9
2008-11-07 08:24:38 51°16.19 2°47.076 277.4 11.7 281 14.6
2008-11-07 08:24:43 51°16.193 2°47.051 277.5 11.8 281 14.4
2008-11-07 08:24:48 51°16.196 2°47.025 277.8 11.8 281 14.2
2008-11-07 08:24:53 51°16.199 2°47 277.8 11.8 281 14.6
2008-11-07 08:24:58 51°16.202 2°46.974 277.8 11.7 281 14.6
2008-11-07 08:25:03 51°16.205 2°46.949 277.9 11.8 281 14.5
2008-11-07 08:25:08 51°16.209 2°46.923 278.1 11.8 281 14.4
2008-11-07 08:25:13 51°16.212 2°46.898 278 11.7 281 14.4
2008-11-07 08:25:18 51°16.214 2°46.872 277.6 11.8 281 14.2
2008-11-07 08:25:23 51°16.218 2°46.847 277.4 11.8 283 14.2
2008-11-07 08:25:28 51°16.221 2°46.821 278.6 11.8 281 14
2008-11-07 08:25:33 51°16.224 2°46.796 278.4 11.7 282 13
2008-11-07 08:25:38 51°16.228 2°46.771 278.4 11.7 281 12.6
2008-11-07 08:25:43 51°16.231 2°46.745 278.3 11.7 283 12.5
2008-11-07 08:25:48 51°16.234 2°46.72 278.6 11.7 281 12.3
2008-11-07 08:25:53 51°16.238 2°46.695 278.3 11.7 282 12.3
2008-11-07 08:25:58 51°16.241 2°46.669 278.4 11.7 281 12.3
2008-11-07 08:26:03 51°16.244 2°46.644 278 11.8 281 12.3
2008-11-07 08:26:08 51°16.248 2°46.618 278 11.8 283 12.3
2008-11-07 08:26:13 51°16.251 2°46.593 278.9 11.8 282 12.2
2008-11-07 08:26:18 51°16.255 2°46.568 279.4 11.8 284 12
2008-11-07 08:26:23 51°16.259 2°46.542 280.5 11.8 283 11.8
2008-11-07 08:26:27 51°16.263 2°46.522 280.5 11.9 285 11.6
2008-11-07 08:26:33 51°16.267 2°46.491 281.2 11.8 284 11.3
2008-11-07 08:26:38 51°16.271 2°46.466 281.6 11.8 283 11.2
2008-11-07 08:26:43 51°16.276 2°46.441 281.3 11.8 286 10.9
2008-11-07 08:26:47 51°16.279 2°46.421 281.8 11.8 284 11
2008-11-07 08:26:53 51°16.284 2°46.391 281.1 11.9 286 10.9
2008-11-07 08:26:58 51°16.287 2°46.365 281.5 11.8 282 10.8
2008-11-07 08:27:03 51°16.292 2°46.34 280.7 11.8 285 10.8
2008-11-07 08:27:08 51°16.296 2°46.315 280.8 11.8 284 11
2008-11-07 08:27:13 51°16.3 2°46.289 280.9 11.9 285 11
2008-11-07 08:27:18 51°16.305 2°46.264 281.4 11.9 286 11
2008-11-07 08:27:23 51°16.309 2°46.239 282.3 11.9 287 10.8
2008-11-07 08:27:28 51°16.314 2°46.214 283 11.9 287 10.5
2008-11-07 08:27:33 51°16.319 2°46.188 283.8 11.9 287 10.6
2008-11-07 08:27:38 51°16.325 2°46.164 284.2 11.9 288 10.6
2008-11-07 08:27:43 51°16.33 2°46.138 284.9 11.9 288 10.6
2008-11-07 08:27:48 51°16.336 2°46.113 285.6 12 289 10.7
2008-11-07 08:27:53 51°16.342 2°46.088 286.5 12 289 10.7
2008-11-07 08:27:58 51°16.347 2°46.063 286.4 12 288 10.8
2008-11-07 08:28:03 51°16.353 2°46.038 285.8 12.1 290 11
2008-11-07 08:28:08 51°16.359 2°46.013 286.6 12.1 291 11
2008-11-07 08:28:13 51°16.365 2°45.988 287.5 12.1 291 10.8
2008-11-07 08:28:18 51°16.372 2°45.964 287.7 12.1 295 10.8
2008-11-07 08:28:23 51°16.379 2°45.94 289.8 12.2 295 11
2008-11-07 08:28:27 51°16.384 2°45.92 291 12.1 294 10.9
2008-11-07 08:28:33 51°16.393 2°45.891 291.6 12.1 296 11
2008-11-07 08:28:38 51°16.401 2°45.867 292.3 12.1 296 11.1
2008-11-07 08:28:43 51°16.408 2°45.843 292.4 12.2 297 11.1
2008-11-07 08:28:48 51°16.416 2°45.819 293.1 12.2 296 11.2
2008-11-07 08:28:53 51°16.423 2°45.795 293 12.2 297 11.3
2008-11-07 08:28:58 51°16.431 2°45.771 293.2 12.2 298 11.5
2008-11-07 08:29:03 51°16.439 2°45.747 294.4 12.3 298 11.8
2008-11-07 08:29:08 51°16.447 2°45.723 294.6 12.3 299 11.9
2008-11-07 08:29:13 51°16.456 2°45.7 294.8 12.3 301 12
2008-11-07 08:29:18 51°16.465 2°45.677 296.9 12.3 304 11.9
2008-11-07 08:29:23 51°16.474 2°45.654 298.6 12.3 302 11.9
2008-11-07 08:29:28 51°16.483 2°45.631 299.1 12.2 302 11.8
2008-11-07 08:29:33 51°16.493 2°45.609 299.2 12.3 304 11.8
2008-11-07 08:29:38 51°16.503 2°45.587 300.5 12.3 307 11.9
2008-11-07 08:29:43 51°16.513 2°45.564 302.4 12.4 305 11.8
2008-11-07 08:29:48 51°16.524 2°45.543 302.6 12.4 308 11.9
2008-11-07 08:29:53 51°16.535 2°45.522 304.7 12.4 309 12
2008-11-07 08:29:58 51°16.546 2°45.501 305.2 12.4 309 12.3
2008-11-07 08:30:03 51°16.558 2°45.48 307.2 12.5 313 12.5
2008-11-07 08:30:08 51°16.569 2°45.46 308.9 12.5 312 12.5
2008-11-07 08:30:13 51°16.581 2°45.439 309.2 12.4 313 12.6
2008-11-07 08:30:18 51°16.592 2°45.419 309.5 12.4 313 12.6
2008-11-07 08:30:23 51°16.605 2°45.4 310.3 12.5 315 12.3
2008-11-07 08:30:28 51°16.617 2°45.38 311.8 12.5 315 12.1
2008-11-07 08:30:33 51°16.63 2°45.362 313.3 12.5 317 12.1
2008-11-07 08:30:38 51°16.642 2°45.342 313.9 12.5 318 12.1
2008-11-07 08:30:43 51°16.656 2°45.325 315 12.6 319 12.2
2008-11-07 08:30:48 51°16.669 2°45.306 315.8 12.6 317 12.2
2008-11-07 08:30:53 51°16.682 2°45.288 316 12.6 320 12.2
2008-11-07 08:30:58 51°16.695 2°45.269 317 12.6 319 12.3
2008-11-07 08:31:03 51°16.709 2°45.252 317.5 12.6 321 12.3
2008-11-07 08:31:07 51°16.72 2°45.237 318.2 12.6 319 12.2
2008-11-07 08:31:13 51°16.736 2°45.216 318.1 12.6 320 12.1
2008-11-07 08:31:18 51°16.748 2°45.197 317.6 12.5 316 12.2
2008-11-07 08:31:23 51°16.761 2°45.179 316.3 12.6 318 12.2
2008-11-07 08:31:28 51°16.774 2°45.159 315.9 12.6 317 12.5
2008-11-07 08:31:33 51°16.787 2°45.141 314.8 12.5 318 12.6
2008-11-07 08:31:38 51°16.799 2°45.121 315 12.5 316 12.8
2008-11-07 08:31:43 51°16.812 2°45.102 314.5 12.5 316 12.6
2008-11-07 08:31:48 51°16.825 2°45.083 314.6 12.6 317 12.9
2008-11-07 08:31:53 51°16.838 2°45.065 314.8 12.5 317 12.9
2008-11-07 08:31:58 51°16.851 2°45.046 315.4 12.5 318 13
2008-11-07 08:32:03 51°16.864 2°45.028 316.2 12.5 318 13
2008-11-07 08:32:08 51°16.876 2°45.009 315.9 12.5 318 13.1
2008-11-07 08:32:13 51°16.889 2°44.991 315.8 12.5 318 12.9
2008-11-07 08:32:18 51°16.902 2°44.972 315.8 12.5 317 13
2008-11-07 08:32:23 51°16.915 2°44.953 315.6 12.6 318 13.4
2008-11-07 08:32:28 51°16.928 2°44.935 315.6 12.6 318 13.4
2008-11-07 08:32:33 51°16.942 2°44.917 316.6 12.6 321 13.5
2008-11-07 08:32:38 51°16.955 2°44.899 317.7 12.6 319 13.7
2008-11-07 08:32:43 51°16.969 2°44.882 317.8 12.6 322 13.8
2008-11-07 08:32:48 51°16.983 2°44.865 319 12.6 322 13.9
2008-11-07 08:32:53 51°16.996 2°44.847 319.7 12.6 321 14.2
2008-11-07 08:32:58 51°17.01 2°44.83 319.2 12.6 320 14.5
2008-11-07 08:33:03 51°17.023 2°44.812 318.8 12.6 320 14.7
2008-11-07 08:33:07 51°17.034 2°44.798 318.2 12.6 321 14.9
2008-11-07 08:33:13 51°17.05 2°44.776 318.5 12.7 320 15.4
2008-11-07 08:33:18 51°17.064 2°44.759 318.5 12.6 322 15.7
2008-11-07 08:33:23 51°17.078 2°44.742 319.2 12.6 322 16.2
2008-11-07 08:33:28 51°17.091 2°44.724 320 12.6 322 16.3
2008-11-07 08:33:33 51°17.105 2°44.708 320.1 12.6 323 16.6
2008-11-07 08:33:38 51°17.119 2°44.69 320.5 12.6 322 16.8
2008-11-07 08:33:43 51°17.133 2°44.673 320.1 12.7 322 16.9
2008-11-07 08:33:48 51°17.147 2°44.655 320 12.7 322 17.1
2008-11-07 08:33:53 51°17.161 2°44.639 320.1 12.7 324 17.2
2008-11-07 08:33:58 51°17.175 2°44.622 320.6 12.6 323 17.3
2008-11-07 08:34:03 51°17.189 2°44.605 320.7 12.7 324 17.4
2008-11-07 08:34:08 51°17.202 2°44.588 321.1 12.7 322 17.3
2008-11-07 08:34:13 51°17.217 2°44.572 320.8 12.6 324 17.4
2008-11-07 08:34:18 51°17.23 2°44.554 320.7 12.6 322 17.4
2008-11-07 08:34:23 51°17.244 2°44.537 320.1 12.6 322 17.2
2008-11-07 08:34:28 51°17.258 2°44.52 319.9 12.6 321 17.1
2008-11-07 08:34:33 51°17.272 2°44.503 319.7 12.6 322 17.1
2008-11-07 08:34:38 51°17.285 2°44.486 319.8 12.5 322 17.1
2008-11-07 08:34:43 51°17.299 2°44.469 319.8 12.6 323 16.9
2008-11-07 08:34:48 51°17.313 2°44.452 320.1 12.5 321 17.2
2008-11-07 08:34:53 51°17.327 2°44.435 320 12.6 323 17
2008-11-07 08:34:58 51°17.34 2°44.418 320.2 12.6 323 17.1
2008-11-07 08:35:03 51°17.354 2°44.401 320.4 12.6 323 17.1
2008-11-07 08:35:08 51°17.368 2°44.384 320.2 12.6 321 17.3
2008-11-07 08:35:13 51°17.382 2°44.366 320 12.5 321 17.3
2008-11-07 08:35:18 51°17.395 2°44.349 319.8 12.6 322 17.5
2008-11-07 08:35:23 51°17.409 2°44.332 320.1 12.5 322 17.7
2008-11-07 08:35:28 51°17.423 2°44.315 320 12.5 322 17.7
2008-11-07 08:35:33 51°17.436 2°44.298 319.6 12.6 322 17.8
2008-11-07 08:35:38 51°17.45 2°44.281 320 12.5 322 17.8
2008-11-07 08:35:43 51°17.464 2°44.264 320 12.6 322 17.9
2008-11-07 08:35:48 51°17.478 2°44.247 319.7 12.6 322 17.9
2008-11-07 08:35:53 51°17.491 2°44.23 320 12.6 322 17.9
2008-11-07 08:35:58 51°17.505 2°44.212 320 12.6 322 18
2008-11-07 08:36:03 51°17.519 2°44.196 319.9 12.6 323 17.8
2008-11-07 08:36:08 51°17.532 2°44.178 320.3 12.6 320 18.1
2008-11-07 08:36:13 51°17.546 2°44.161 319.3 12.5 323 18.1
2008-11-07 08:36:18 51°17.559 2°44.143 319.3 12.5 320 18.1
2008-11-07 08:36:23 51°17.573 2°44.126 318.9 12.5 321 18.2
2008-11-07 08:36:28 51°17.586 2°44.109 318.9 12.5 322 18
2008-11-07 08:36:33 51°17.6 2°44.091 319.3 12.5 321 17.9
2008-11-07 08:36:38 51°17.613 2°44.074 319.2 12.5 321 17.8
2008-11-07 08:36:43 51°17.627 2°44.057 319.1 12.5 321 17.7
2008-11-07 08:36:48 51°17.64 2°44.039 319.3 12.5 321 17.5
2008-11-07 08:36:53 51°17.654 2°44.022 319.3 12.5 321 17.2
2008-11-07 08:36:58 51°17.667 2°44.004 318.9 12.5 322 17
2008-11-07 08:37:03 51°17.681 2°43.987 319.2 12.5 322 16.6
2008-11-07 08:37:08 51°17.695 2°43.97 319.3 12.5 321 16.9
2008-11-07 08:37:13 51°17.708 2°43.953 319.2 12.5 321 16.7
2008-11-07 08:37:18 51°17.721 2°43.934 318.6 12.4 320 16.4
2008-11-07 08:37:23 51°17.735 2°43.918 318 12.4 322 16.1
2008-11-07 08:37:28 51°17.748 2°43.9 318.6 12.4 320 15.7
2008-11-07 08:37:33 51°17.761 2°43.883 318.5 12.4 321 15.6
2008-11-07 08:37:38 51°17.775 2°43.865 318.5 12.4 320 15.1
2008-11-07 08:37:43 51°17.788 2°43.848 318.4 12.5 320 14.4
2008-11-07 08:37:48 51°17.801 2°43.831 318.3 12.4 321 13.6
2008-11-07 08:37:53 51°17.815 2°43.813 318.5 12.4 321 13.2
2008-11-07 08:37:58 51°17.828 2°43.797 318.5 12.4 322 12.3
2008-11-07 08:38:03 51°17.842 2°43.779 319.3 12.4 321 10.6
2008-11-07 08:38:08 51°17.855 2°43.763 319.3 12.4 322 13.3
2008-11-07 08:38:13 51°17.868 2°43.745 319.3 12.4 320 12.9
2008-11-07 08:38:18 51°17.881 2°43.727 317.8 12.4 321 12.2
2008-11-07 08:38:23 51°17.895 2°43.71 317.2 12.4 321 13.4
2008-11-07 08:38:28 51°17.908 2°43.692 317.9 12.4 320 14.3
2008-11-07 08:38:33 51°17.921 2°43.674 318 12.4 319 14.3
2008-11-07 08:38:38 51°17.934 2°43.657 317.1 12.5 320 13.9
2008-11-07 08:38:43 51°17.947 2°43.639 316.8 12.4 319 12.3
2008-11-07 08:38:48 51°17.96 2°43.621 316.6 12.3 319 12.5
2008-11-07 08:38:53 51°17.974 2°43.604 317 12.4 320 12.9
2008-11-07 08:38:58 51°17.986 2°43.586 317.4 12.3 319 13.1
2008-11-07 08:39:03 51°18 2°43.569 317.3 12.4 322 12.6
2008-11-07 08:39:08 51°18.013 2°43.552 318 12.4 321 12.8
2008-11-07 08:39:13 51°18.027 2°43.535 318.3 12.3 321 12.9
2008-11-07 08:39:18 51°18.04 2°43.518 318.1 12.4 324 13.1
2008-11-07 08:39:23 51°18.054 2°43.501 318.9 12.3 320 13.2
2008-11-07 08:39:28 51°18.067 2°43.484 318.2 12.3 321 13.6
2008-11-07 08:39:33 51°18.081 2°43.467 317.8 12.3 322 14.4
2008-11-07 08:39:38 51°18.094 2°43.45 318.1 12.4 322 14.9
2008-11-07 08:39:43 51°18.108 2°43.433 318.4 12.4 322 15.7
2008-11-07 08:39:48 51°18.122 2°43.416 318.3 12.5 322 16.9
2008-11-07 08:39:53 51°18.135 2°43.399 318.2 12.6 322 18.2
2008-11-07 08:39:58 51°18.149 2°43.382 318.5 12.6 322 19.7
2008-11-07 08:40:03 51°18.163 2°43.365 319 12.6 322 20.9
2008-11-07 08:40:08 51°18.177 2°43.348 318.9 12.7 323 21.5
2008-11-07 08:40:13 51°18.191 2°43.331 319.2 12.6 323 22
2008-11-07 08:40:18 51°18.205 2°43.314 319.4 12.6 322 22.5
2008-11-07 08:40:23 51°18.219 2°43.297 319.5 12.6 322 22.9
2008-11-07 08:40:27 51°18.23 2°43.283 319.2 12.6 323 23.3
2008-11-07 08:40:33 51°18.246 2°43.262 318.8 12.6 320 23.5
2008-11-07 08:40:38 51°18.259 2°43.244 317.2 12.5 318 23.8
2008-11-07 08:40:43 51°18.272 2°43.225 315.9 12.5 318 24
2008-11-07 08:40:48 51°18.285 2°43.208 315.2 12.5 320 24.1
2008-11-07 08:40:53 51°18.298 2°43.188 315.5 12.5 317 24.3
2008-11-07 08:40:58 51°18.311 2°43.17 314.6 12.5 319 24.1
2008-11-07 08:41:03 51°18.324 2°43.151 315.1 12.6 316 24.2
2008-11-07 08:41:08 51°18.336 2°43.132 314.2 12.6 316 24.3
2008-11-07 08:41:13 51°18.349 2°43.113 313.8 12.6 316 24.6
2008-11-07 08:41:18 51°18.362 2°43.094 313.4 12.7 316 24.6
2008-11-07 08:41:23 51°18.375 2°43.074 312.6 12.6 315 24.3
2008-11-07 08:41:28 51°18.387 2°43.055 311.9 12.7 316 24.4
2008-11-07 08:41:33 51°18.399 2°43.035 311.6 12.6 313 24.6
2008-11-07 08:41:38 51°18.412 2°43.015 310.2 12.6 316 24.5
2008-11-07 08:41:43 51°18.424 2°42.996 310.8 12.6 315 24.8
2008-11-07 08:41:48 51°18.436 2°42.975 311 12.6 313 24.7
2008-11-07 08:41:53 51°18.448 2°42.955 309.3 12.6 314 24.5
2008-11-07 08:41:58 51°18.46 2°42.934 309 12.5 312 24.6
2008-11-07 08:42:03 51°18.472 2°42.914 308.1 12.5 312 24.5
2008-11-07 08:42:08 51°18.483 2°42.893 307.5 12.6 311 24.6
2008-11-07 08:42:13 51°18.494 2°42.872 306.3 12.5 310 24.4
2008-11-07 08:42:18 51°18.505 2°42.85 305.5 12.4 309 24.4
2008-11-07 08:42:23 51°18.516 2°42.829 304.5 12.4 309 24.5
2008-11-07 08:42:27 51°18.524 2°42.811 303.3 12.4 306 24.5
2008-11-07 08:42:33 51°18.536 2°42.784 301.8 12.3 306 24.4
2008-11-07 08:42:38 51°18.546 2°42.762 300.7 12.3 305 24.4
2008-11-07 08:42:43 51°18.555 2°42.739 300 12.3 303 24.5
2008-11-07 08:42:48 51°18.564 2°42.717 298.9 12.2 302 24.5
2008-11-07 08:42:53 51°18.573 2°42.693 297 12.2 301 24.6